createdAt,value
2017-08-11T00:01:12.806Z,7.27
2017-08-11T00:03:40.301Z,11.97
2017-08-11T00:06:07.790Z,6.67
2017-08-11T00:08:35.252Z,7.10
2017-08-11T00:11:02.743Z,7.53
2017-08-11T00:13:30.205Z,7.30
2017-08-11T00:15:57.677Z,6.70
2017-08-11T00:18:25.137Z,8.47
2017-08-11T00:20:52.635Z,10.80
2017-08-11T00:23:20.230Z,7.83
2017-08-11T00:25:47.687Z,7.40
2017-08-11T00:28:15.138Z,8.70
2017-08-11T00:30:42.621Z,8.57
2017-08-11T00:33:10.070Z,9.57
2017-08-11T00:35:37.566Z,7.97
2017-08-11T00:38:05.017Z,8.27
2017-08-11T00:40:32.497Z,7.93
2017-08-11T00:42:59.969Z,13.10
2017-08-11T00:45:27.480Z,9.43
2017-08-11T00:47:54.968Z,7.77
2017-08-11T00:50:22.450Z,8.43
2017-08-11T00:52:49.941Z,8.40
2017-08-11T00:55:17.385Z,8.63
2017-08-11T00:57:44.861Z,8.30
2017-08-11T01:00:12.310Z,9.13
2017-08-11T01:02:39.801Z,9.17
2017-08-11T01:05:07.268Z,10.50
2017-08-11T01:07:34.770Z,8.77
2017-08-11T01:10:02.267Z,17.57
2017-08-11T01:12:29.763Z,10.00
2017-08-11T01:14:57.234Z,8.50
2017-08-11T01:17:24.721Z,10.10
2017-08-11T01:19:52.185Z,8.83
2017-08-11T01:22:19.679Z,8.17
2017-08-11T01:24:47.169Z,7.67
2017-08-11T01:27:14.637Z,10.37
2017-08-11T01:29:42.125Z,8.23
2017-08-11T01:32:09.572Z,8.37
2017-08-11T01:34:37.048Z,9.40
2017-08-11T01:37:04.549Z,16.63
2017-08-11T01:39:32.032Z,7.30
2017-08-11T01:41:59.498Z,8.80
2017-08-11T01:44:26.974Z,7.63
2017-08-11T01:46:54.430Z,7.37
2017-08-11T01:49:21.947Z,10.47
2017-08-11T01:51:50.353Z,6.93
2017-08-11T01:54:17.806Z,7.87
2017-08-11T01:56:45.295Z,8.90
2017-08-11T01:59:12.758Z,8.30
2017-08-11T02:01:40.240Z,10.63
2017-08-11T02:04:07.684Z,9.37
2017-08-11T02:06:35.153Z,8.03
2017-08-11T02:09:02.623Z,8.10
2017-08-11T02:11:30.139Z,8.33
2017-08-11T02:13:57.607Z,6.73
2017-08-11T02:16:25.080Z,7.57
2017-08-11T02:18:52.532Z,8.10
2017-08-11T02:21:20.026Z,6.97
2017-08-11T02:23:47.529Z,8.40
2017-08-11T02:26:14.986Z,7.90
2017-08-11T02:28:42.476Z,7.97
2017-08-11T02:31:09.953Z,8.10
2017-08-11T02:33:37.425Z,6.37
2017-08-11T02:36:04.918Z,7.47
2017-08-11T02:38:32.395Z,7.90
2017-08-11T02:40:59.878Z,8.13
2017-08-11T02:43:27.363Z,11.07
2017-08-11T02:45:54.829Z,7.57
2017-08-11T02:48:22.264Z,7.97
2017-08-11T02:50:49.747Z,8.93
2017-08-11T02:53:17.189Z,8.47
2017-08-11T02:55:44.685Z,8.90
2017-08-11T02:58:12.147Z,8.73
2017-08-11T03:00:39.643Z,10.60
2017-08-11T03:03:07.093Z,8.77
2017-08-11T03:05:34.596Z,14.33
2017-08-11T03:08:02.040Z,9.90
2017-08-11T03:10:29.517Z,13.03
2017-08-11T03:12:56.971Z,9.70
2017-08-11T03:15:24.569Z,10.30
2017-08-11T03:17:52.017Z,9.40
2017-08-11T03:20:19.465Z,11.20
2017-08-11T03:22:46.937Z,9.23
2017-08-11T03:25:14.463Z,8.37
2017-08-11T03:27:41.948Z,11.93
2017-08-11T03:30:09.441Z,9.10
2017-08-11T03:32:36.936Z,13.53
2017-08-11T03:35:04.431Z,11.10
2017-08-11T03:37:31.908Z,9.83
2017-08-11T03:39:59.403Z,15.53
2017-08-11T03:42:26.858Z,9.10
2017-08-11T03:44:54.355Z,9.47
2017-08-11T03:47:21.813Z,9.43
2017-08-11T03:49:49.294Z,9.80
2017-08-11T03:52:16.757Z,8.93
2017-08-11T03:54:44.221Z,11.70
2017-08-11T03:57:11.685Z,7.83
2017-08-11T03:59:39.166Z,17.90
2017-08-11T04:02:06.618Z,10.33
2017-08-11T04:04:34.104Z,11.13
2017-08-11T04:07:01.554Z,8.33
2017-08-11T04:09:29.091Z,8.10
2017-08-11T04:11:56.577Z,10.03
2017-08-11T04:14:24.038Z,9.00
2017-08-11T04:16:51.513Z,9.73
2017-08-11T04:19:18.998Z,10.27
2017-08-11T04:21:46.474Z,8.90
2017-08-11T04:24:13.935Z,7.90
2017-08-11T04:26:41.415Z,8.40
2017-08-11T04:29:08.911Z,13.00
2017-08-11T04:31:36.390Z,13.23
2017-08-11T04:34:03.866Z,9.43
2017-08-11T04:36:31.327Z,11.10
2017-08-11T04:38:58.802Z,8.73
2017-08-11T04:41:26.266Z,12.47
2017-08-11T04:43:53.754Z,8.63
2017-08-11T04:46:21.235Z,9.40
2017-08-11T04:48:48.725Z,10.37
2017-08-11T04:51:16.212Z,10.93
2017-08-11T04:53:43.686Z,9.70
2017-08-11T04:56:11.145Z,10.33
2017-08-11T04:58:38.642Z,9.73
2017-08-11T05:01:06.138Z,8.57
2017-08-11T05:03:33.591Z,11.40
2017-08-11T05:06:01.090Z,11.43
2017-08-11T05:08:28.558Z,8.60
2017-08-11T05:10:56.044Z,9.73
2017-08-11T05:13:23.518Z,9.13
2017-08-11T05:15:51.113Z,10.13
2017-08-11T05:18:18.578Z,13.33
2017-08-11T05:20:46.041Z,13.30
2017-08-11T05:23:13.529Z,9.50
2017-08-11T05:25:40.993Z,10.60
2017-08-11T05:28:09.692Z,10.10
2017-08-11T05:30:37.161Z,10.97
2017-08-11T05:33:04.657Z,14.10
2017-08-11T05:35:32.148Z,10.37
2017-08-11T05:37:59.655Z,11.50
2017-08-11T05:40:27.222Z,13.33
2017-08-11T05:42:54.715Z,10.30
2017-08-11T05:45:22.197Z,10.80
2017-08-11T05:47:49.686Z,12.90
2017-08-11T05:50:17.238Z,10.83
2017-08-11T05:52:44.690Z,12.33
2017-08-11T05:55:12.197Z,13.37
2017-08-11T05:57:39.679Z,12.10
2017-08-11T06:00:07.162Z,10.43
2017-08-11T06:02:34.685Z,13.27
2017-08-11T06:05:02.162Z,16.30
2017-08-11T06:07:29.662Z,13.20
2017-08-11T06:09:57.144Z,11.30
2017-08-11T06:12:24.681Z,15.40
2017-08-11T06:14:52.167Z,12.13
2017-08-11T06:17:19.691Z,12.73
2017-08-11T06:19:47.165Z,10.83
2017-08-11T06:22:14.646Z,15.53
2017-08-11T06:24:42.114Z,13.60
2017-08-11T06:27:09.761Z,12.60
2017-08-11T06:29:37.234Z,12.40
2017-08-11T06:32:04.701Z,13.73
2017-08-11T06:34:32.171Z,12.47
2017-08-11T06:36:59.662Z,14.23
2017-08-11T06:39:27.156Z,14.23
2017-08-11T06:41:54.614Z,12.60
2017-08-11T06:44:22.114Z,13.53
2017-08-11T06:46:49.590Z,16.43
2017-08-11T06:49:17.091Z,10.87
2017-08-11T06:51:44.551Z,11.20
2017-08-11T06:54:12.050Z,11.07
2017-08-11T06:56:40.111Z,15.93
2017-08-11T06:59:07.600Z,11.57
2017-08-11T07:01:35.097Z,10.83
2017-08-11T07:04:02.694Z,10.00
2017-08-11T07:06:30.163Z,10.03
2017-08-11T07:08:57.676Z,14.73
2017-08-11T07:11:25.207Z,9.50
2017-08-11T07:13:52.664Z,10.57
2017-08-11T07:16:20.159Z,12.27
2017-08-11T07:18:47.630Z,10.93
2017-08-11T07:21:15.128Z,12.10
2017-08-11T07:23:42.629Z,12.63
2017-08-11T07:26:10.121Z,11.13
2017-08-11T07:28:37.655Z,10.63
2017-08-11T07:31:05.106Z,11.83
2017-08-11T07:33:32.623Z,16.27
2017-08-11T07:36:00.085Z,10.03
2017-08-11T07:38:28.179Z,10.53
2017-08-11T07:40:55.684Z,10.03
2017-08-11T07:43:24.018Z,10.63
2017-08-11T07:45:52.506Z,11.63
2017-08-11T07:48:19.967Z,11.53
2017-08-11T07:50:47.444Z,15.43
2017-08-11T07:53:14.960Z,10.77
2017-08-11T07:55:42.488Z,9.80
2017-08-11T07:58:09.996Z,12.37
2017-08-11T08:00:37.503Z,12.23
2017-08-11T08:03:04.960Z,11.73
2017-08-11T08:05:32.462Z,10.90
2017-08-11T08:07:59.947Z,18.00
2017-08-11T08:10:27.447Z,13.40
2017-08-11T08:12:54.947Z,15.50
2017-08-11T08:15:22.445Z,17.50
2017-08-11T08:17:49.955Z,14.50
2017-08-11T08:20:18.285Z,19.13
2017-08-11T08:22:45.947Z,15.00
2017-08-11T08:25:13.426Z,18.60
2017-08-11T08:27:40.936Z,17.13
2017-08-11T08:30:08.409Z,18.10
2017-08-11T08:32:38.005Z,16.80
2017-08-11T08:35:05.487Z,20.33
2017-08-11T08:37:32.989Z,19.07
2017-08-11T08:40:00.507Z,20.80
2017-08-11T08:42:28.036Z,16.80
2017-08-11T08:44:55.522Z,20.73
2017-08-11T08:47:23.034Z,19.53
2017-08-11T08:49:50.506Z,22.97
2017-08-11T08:52:18.001Z,19.23
2017-08-11T08:54:45.458Z,26.37
2017-08-11T08:57:13.606Z,25.10
2017-08-11T08:59:41.072Z,20.80
2017-08-11T09:02:08.701Z,21.83
2017-08-11T09:04:36.818Z,27.70
2017-08-11T09:07:04.326Z,24.87
2017-08-11T09:09:32.135Z,25.70
2017-08-11T09:11:59.620Z,18.83
2017-08-11T09:14:27.119Z,24.33
2017-08-11T09:16:54.605Z,19.03
2017-08-11T09:19:22.110Z,22.13
2017-08-11T09:21:49.694Z,26.80
2017-08-11T09:24:28.854Z,30.33
2017-08-11T09:27:17.018Z,27.50
2017-08-11T09:29:56.173Z,19.97
2017-08-11T09:32:35.375Z,21.17
2017-08-11T09:35:14.547Z,24.70
2017-08-11T09:37:41.597Z,21.77
2017-08-11T09:40:09.090Z,20.23
2017-08-11T09:42:36.642Z,22.70
2017-08-11T09:45:04.126Z,23.03
2017-08-11T09:47:31.643Z,27.83
2017-08-11T09:49:59.133Z,22.77
2017-08-11T09:52:26.831Z,23.87
2017-08-11T09:54:54.333Z,26.10
2017-08-11T09:57:21.892Z,25.90
2017-08-11T09:59:49.385Z,23.97
2017-08-11T10:02:16.878Z,24.10
2017-08-11T10:04:44.383Z,31.03
2017-08-11T10:07:11.897Z,22.17
2017-08-11T10:09:39.423Z,23.33
2017-08-11T10:12:06.949Z,27.80
2017-08-11T10:14:34.530Z,24.63
2017-08-11T10:17:02.035Z,26.30
2017-08-11T10:19:29.512Z,23.87
2017-08-11T10:21:57.003Z,22.90
2017-08-11T10:24:24.492Z,27.07
2017-08-11T10:26:52.980Z,24.97
2017-08-11T10:29:20.444Z,23.77
2017-08-11T10:31:47.930Z,23.13
2017-08-11T10:34:15.417Z,23.97
2017-08-11T10:36:42.905Z,23.70
2017-08-11T10:39:10.381Z,27.63
2017-08-11T10:41:37.880Z,20.60
2017-08-11T10:44:05.365Z,21.73
2017-08-11T10:46:33.051Z,18.53
2017-08-11T10:49:00.538Z,18.47
2017-08-11T10:51:28.021Z,30.70
2017-08-11T10:53:55.587Z,18.50
2017-08-11T10:56:23.147Z,20.90
2017-08-11T10:58:50.674Z,20.40
2017-08-11T11:01:18.134Z,18.10
2017-08-11T11:03:45.614Z,17.57
2017-08-11T11:06:13.120Z,17.93
2017-08-11T11:08:40.573Z,22.40
2017-08-11T11:11:08.121Z,19.63
2017-08-11T11:13:35.577Z,21.63
2017-08-11T11:16:03.058Z,17.90
2017-08-11T11:18:30.563Z,15.77
2017-08-11T11:20:58.067Z,17.63
2017-08-11T11:23:25.521Z,16.13
2017-08-11T11:25:52.999Z,17.50
2017-08-11T11:28:20.578Z,14.17
2017-08-11T11:30:48.134Z,17.23
2017-08-11T11:33:15.643Z,17.17
2017-08-11T11:35:43.141Z,25.80
2017-08-11T11:38:10.668Z,22.33
2017-08-11T11:40:38.275Z,17.50
2017-08-11T11:43:05.841Z,12.57
2017-08-11T11:45:33.393Z,16.60
2017-08-11T11:48:00.942Z,11.73
2017-08-11T11:50:28.456Z,16.80
2017-08-11T11:52:55.936Z,15.57
2017-08-11T11:55:24.457Z,13.97
2017-08-11T11:57:51.905Z,16.90
2017-08-11T12:00:19.386Z,14.03
2017-08-11T12:02:46.842Z,10.80
2017-08-11T12:05:14.352Z,12.67
2017-08-11T12:07:41.843Z,13.10
2017-08-11T12:10:09.306Z,10.37
2017-08-11T12:12:36.843Z,10.43
2017-08-11T12:15:05.137Z,11.23
2017-08-11T12:17:32.635Z,9.60
2017-08-11T12:20:00.168Z,9.47
2017-08-11T12:22:27.718Z,9.07
2017-08-11T12:24:55.227Z,11.43
2017-08-11T12:27:22.703Z,10.13
2017-08-11T12:29:50.620Z,9.43
2017-08-11T12:32:18.080Z,9.23
2017-08-11T12:34:45.738Z,10.07
2017-08-11T12:37:13.233Z,11.00
2017-08-11T12:39:40.692Z,42.60
2017-08-11T12:42:08.164Z,10.40
2017-08-11T12:44:35.659Z,7.90
2017-08-11T12:47:03.155Z,7.80
2017-08-11T12:49:30.615Z,7.53
2017-08-11T12:51:58.089Z,7.47
2017-08-11T12:54:25.595Z,9.63
2017-08-11T12:56:53.125Z,8.10
2017-08-11T12:59:21.403Z,7.33
2017-08-11T13:01:48.881Z,8.40
2017-08-11T13:04:17.343Z,8.77
2017-08-11T13:06:44.858Z,10.10
2017-08-11T13:09:12.417Z,8.80
2017-08-11T13:11:39.916Z,10.50
2017-08-11T13:14:07.427Z,7.50
2017-08-11T13:16:34.941Z,8.87
2017-08-11T13:19:02.431Z,11.87
2017-08-11T13:21:29.202Z,8.10
2017-08-11T13:23:56.673Z,9.50
2017-08-11T13:26:24.157Z,9.40
2017-08-11T13:28:52.433Z,9.80
2017-08-11T13:31:19.900Z,9.70
2017-08-11T13:33:47.387Z,12.90
2017-08-11T13:36:14.891Z,9.90
2017-08-11T13:38:42.345Z,11.40
2017-08-11T13:41:09.856Z,9.47
2017-08-11T13:43:37.342Z,8.77
2017-08-11T13:46:04.827Z,9.83
2017-08-11T13:48:32.285Z,12.00
2017-08-11T13:50:59.794Z,17.10
2017-08-11T13:53:27.237Z,8.10
2017-08-11T13:55:55.259Z,10.77
2017-08-11T13:58:22.712Z,9.70
2017-08-11T14:00:50.190Z,11.90
2017-08-11T14:03:17.707Z,12.37
2017-08-11T14:05:45.177Z,8.70
2017-08-11T14:08:12.700Z,8.40
2017-08-11T14:10:40.196Z,7.47
2017-08-11T14:13:07.702Z,9.23
2017-08-11T14:15:35.152Z,9.03
2017-08-11T14:18:02.630Z,8.43
2017-08-11T14:20:30.139Z,11.23
2017-08-11T14:22:57.650Z,8.57
2017-08-11T14:25:25.158Z,10.63
2017-08-11T14:27:53.170Z,7.77
2017-08-11T14:30:20.659Z,8.80
2017-08-11T14:32:48.118Z,12.63
2017-08-11T14:35:15.633Z,14.77
2017-08-11T14:37:43.173Z,9.60
2017-08-11T14:40:10.683Z,8.53
2017-08-11T14:42:38.153Z,11.60
2017-08-11T14:45:05.654Z,10.70
2017-08-11T14:47:33.284Z,8.87
2017-08-11T14:50:00.800Z,9.40
2017-08-11T14:52:28.316Z,9.77
2017-08-11T14:54:55.826Z,10.27
2017-08-11T14:57:23.362Z,10.40
2017-08-11T14:59:50.856Z,14.33
2017-08-11T15:02:18.315Z,8.70
2017-08-11T15:04:45.869Z,8.03
2017-08-11T15:07:13.363Z,9.50
2017-08-11T15:09:40.835Z,10.20
2017-08-11T15:12:08.284Z,9.57
2017-08-11T15:14:35.769Z,12.43
2017-08-11T15:17:03.230Z,8.23
2017-08-11T15:19:30.709Z,11.87
2017-08-11T15:21:58.162Z,12.20
2017-08-11T15:24:25.673Z,10.20
2017-08-11T15:26:53.211Z,11.10
2017-08-11T15:29:20.685Z,13.23
2017-08-11T15:31:48.182Z,12.20
2017-08-11T15:34:15.658Z,9.30
2017-08-11T15:36:43.178Z,13.60
2017-08-11T15:39:10.652Z,11.97
2017-08-11T15:41:38.127Z,14.87
2017-08-11T15:44:05.614Z,15.00
2017-08-11T15:46:33.088Z,16.63
2017-08-11T15:49:00.600Z,11.80
2017-08-11T15:51:28.915Z,13.93
2017-08-11T15:53:56.398Z,11.70
2017-08-11T15:56:23.861Z,13.10
2017-08-11T15:58:51.411Z,14.40
2017-08-11T16:01:19.838Z,13.43
2017-08-11T16:03:47.324Z,15.27
2017-08-11T16:06:14.830Z,13.33
2017-08-11T16:08:42.354Z,17.20
2017-08-11T16:11:09.857Z,16.00
2017-08-11T16:13:37.359Z,20.60
2017-08-11T16:16:04.877Z,13.37
2017-08-11T16:18:32.395Z,16.30
2017-08-11T16:21:00.767Z,17.30
2017-08-11T16:23:28.273Z,16.00
2017-08-11T16:25:55.770Z,15.87
2017-08-11T16:28:23.231Z,17.10
2017-08-11T16:30:50.747Z,14.23
2017-08-11T16:33:18.266Z,14.23
2017-08-11T16:35:45.742Z,15.67
2017-08-11T16:38:13.231Z,18.80
2017-08-11T16:40:40.691Z,21.93
2017-08-11T16:43:08.165Z,18.90
2017-08-11T16:45:35.655Z,16.73
2017-08-11T16:48:03.160Z,19.90
2017-08-11T16:50:30.669Z,16.57
2017-08-11T16:52:58.176Z,16.90
2017-08-11T16:55:25.998Z,19.50
2017-08-11T16:57:53.482Z,18.73
2017-08-11T17:00:20.962Z,16.90
2017-08-11T17:02:48.467Z,20.57
2017-08-11T17:05:15.937Z,21.53
2017-08-11T17:07:43.425Z,16.97
2017-08-11T17:10:10.915Z,22.93
2017-08-11T17:12:38.371Z,18.30
2017-08-11T17:15:05.925Z,17.43
2017-08-11T17:17:33.419Z,21.30
2017-08-11T17:20:00.894Z,19.00
2017-08-11T17:22:28.374Z,19.77
2017-08-11T17:24:55.832Z,19.57
2017-08-11T17:27:23.607Z,20.00
2017-08-11T17:29:51.101Z,18.00
2017-08-11T17:32:18.590Z,21.57
2017-08-11T17:34:46.774Z,17.93
2017-08-11T17:37:14.308Z,19.10
2017-08-11T17:39:41.843Z,21.43
2017-08-11T17:42:09.310Z,17.83
2017-08-11T17:44:36.810Z,20.50
2017-08-11T17:47:04.272Z,22.63
2017-08-11T17:49:31.770Z,21.03
2017-08-11T17:51:59.241Z,26.07
2017-08-11T17:54:26.729Z,21.80
2017-08-11T17:56:54.216Z,19.17
2017-08-11T17:59:21.676Z,21.57
2017-08-11T18:01:49.181Z,20.57
2017-08-11T18:04:16.645Z,20.13
2017-08-11T18:06:44.134Z,27.10
2017-08-11T18:09:11.611Z,20.47
2017-08-11T18:11:39.114Z,23.53
2017-08-11T18:14:06.601Z,28.07
2017-08-11T18:16:34.148Z,28.10
2017-08-11T18:19:01.651Z,26.70
2017-08-11T18:21:29.138Z,26.60
2017-08-11T18:23:56.597Z,24.00
2017-08-11T18:26:24.132Z,24.73
2017-08-11T18:28:51.629Z,27.37
2017-08-11T18:31:19.105Z,24.17
2017-08-11T18:33:46.614Z,27.17
2017-08-11T18:36:14.088Z,25.73
2017-08-11T18:38:41.574Z,29.43
2017-08-11T18:41:09.078Z,19.20
2017-08-11T18:43:36.603Z,25.03
2017-08-11T18:46:04.086Z,20.70
2017-08-11T18:48:31.726Z,21.13
2017-08-11T18:50:59.208Z,18.27
2017-08-11T18:53:26.669Z,19.90
2017-08-11T18:55:54.163Z,17.67
2017-08-11T18:58:21.627Z,20.37
2017-08-11T19:00:49.129Z,21.57
2017-08-11T19:03:16.590Z,17.30
2017-08-11T19:05:44.073Z,18.77
2017-08-11T19:08:11.567Z,26.47
2017-08-11T19:10:39.061Z,19.00
2017-08-11T19:13:06.550Z,18.97
2017-08-11T19:15:34.021Z,15.70
2017-08-11T19:18:01.506Z,23.80
2017-08-11T19:20:28.974Z,18.07
2017-08-11T19:22:56.473Z,18.10
2017-08-11T19:25:23.951Z,15.63
2017-08-11T19:27:51.468Z,18.20
2017-08-11T19:30:18.935Z,15.87
2017-08-11T19:32:46.434Z,20.73
2017-08-11T19:35:13.898Z,18.97
2017-08-11T19:37:41.398Z,21.80
2017-08-11T19:40:08.864Z,20.23
2017-08-11T19:42:36.382Z,33.30
2017-08-11T19:45:03.852Z,17.83
2017-08-11T19:47:31.371Z,13.93
2017-08-11T19:49:58.840Z,16.20
2017-08-11T19:52:26.343Z,16.70
2017-08-11T19:54:53.825Z,16.00
2017-08-11T19:57:21.283Z,15.77
2017-08-11T19:59:49.562Z,14.47
2017-08-11T20:02:17.048Z,14.03
2017-08-11T20:04:44.519Z,24.13
2017-08-11T20:07:12.039Z,16.97
2017-08-11T20:09:39.503Z,17.03
2017-08-11T20:12:06.998Z,14.70
2017-08-11T20:14:34.472Z,13.87
2017-08-11T20:17:01.966Z,16.43
2017-08-11T20:19:29.440Z,11.97
2017-08-11T20:21:56.940Z,17.43
2017-08-11T20:24:24.396Z,15.00
2017-08-11T20:26:51.898Z,19.93
2017-08-11T20:29:19.380Z,12.10
2017-08-11T20:31:46.887Z,13.57
2017-08-11T20:34:14.332Z,14.70
2017-08-11T20:36:41.827Z,16.93
2017-08-11T20:39:09.299Z,33.37
2017-08-11T20:41:36.785Z,32.23
2017-08-11T20:44:04.260Z,30.43
2017-08-11T20:46:31.762Z,24.23
2017-08-11T20:48:59.260Z,18.60
2017-08-11T20:51:26.771Z,18.00
2017-08-11T20:53:54.380Z,22.33
2017-08-11T20:56:21.837Z,20.83
2017-08-11T20:58:49.365Z,23.37
2017-08-11T21:01:16.861Z,28.63
2017-08-11T21:03:44.343Z,22.50
2017-08-11T21:06:11.840Z,18.20
2017-08-11T21:08:39.307Z,16.70
2017-08-11T21:11:06.805Z,22.13
2017-08-11T21:13:34.266Z,32.17
2017-08-11T21:16:01.814Z,22.97
2017-08-11T21:18:29.279Z,21.90
2017-08-11T21:20:56.772Z,16.83
2017-08-11T21:23:24.240Z,15.73
2017-08-11T21:25:51.721Z,15.93
2017-08-11T21:28:19.188Z,14.80
2017-08-11T21:30:46.686Z,16.10
2017-08-11T21:33:14.178Z,14.30
2017-08-11T21:35:41.632Z,13.90
2017-08-11T21:38:09.113Z,14.17
2017-08-11T21:40:36.621Z,16.60
2017-08-11T21:43:04.110Z,17.10
2017-08-11T21:45:31.606Z,13.20
2017-08-11T21:47:59.071Z,17.53
2017-08-11T21:50:26.548Z,16.40
2017-08-11T21:52:54.013Z,17.70
2017-08-11T21:55:21.481Z,15.47
2017-08-11T21:57:48.945Z,17.27
2017-08-11T22:00:16.434Z,14.73
2017-08-11T22:02:43.890Z,23.03
2017-08-11T22:05:11.424Z,17.33
2017-08-11T22:07:38.902Z,18.03
2017-08-11T22:10:06.487Z,20.30
2017-08-11T22:12:33.949Z,17.70
2017-08-11T22:15:01.443Z,18.13
2017-08-11T22:17:28.934Z,20.30
2017-08-11T22:19:56.428Z,21.87
2017-08-11T22:22:23.907Z,19.13
2017-08-11T22:24:51.423Z,19.40
2017-08-11T22:27:18.890Z,18.20
2017-08-11T22:29:46.373Z,17.53
2017-08-11T22:32:13.887Z,16.10
2017-08-11T22:34:42.377Z,15.50
2017-08-11T22:37:09.871Z,16.17
2017-08-11T22:39:37.406Z,24.93
2017-08-11T22:42:04.874Z,17.53
2017-08-11T22:44:32.456Z,26.63
2017-08-11T22:46:59.905Z,20.13
2017-08-11T22:49:27.381Z,18.73
2017-08-11T22:51:54.882Z,17.20
2017-08-11T22:54:22.388Z,17.77
2017-08-11T22:56:49.878Z,19.23
2017-08-11T22:59:17.352Z,22.53
2017-08-11T23:01:44.862Z,21.00
2017-08-11T23:04:12.329Z,17.03
2017-08-11T23:06:40.290Z,18.10
2017-08-11T23:09:07.749Z,22.03
2017-08-11T23:11:35.258Z,20.37
2017-08-11T23:14:02.779Z,21.90
2017-08-11T23:16:30.253Z,20.70
2017-08-11T23:18:57.748Z,19.00
2017-08-11T23:21:25.218Z,17.53
2017-08-11T23:23:52.710Z,20.53
2017-08-11T23:26:20.185Z,21.10
2017-08-11T23:28:47.677Z,17.23
2017-08-11T23:31:15.168Z,20.87
2017-08-11T23:33:42.680Z,22.70
2017-08-11T23:36:10.164Z,20.00
2017-08-11T23:38:37.653Z,19.33
2017-08-11T23:41:05.185Z,19.97
2017-08-11T23:43:32.653Z,22.70
2017-08-11T23:46:00.140Z,22.83
2017-08-11T23:48:27.604Z,18.80
2017-08-11T23:50:55.081Z,21.17
2017-08-11T23:53:22.564Z,19.00
2017-08-11T23:55:50.013Z,21.20
2017-08-11T23:58:17.492Z,20.43
